Terminal Aerodrome Forecast
Issued by NWS

Home | Current Version | Previous Version | Text Only | Print | Product List | Glossary On
Versions: 1 2 3 4 5 6 7 8 9 10 11 12 13 14 15 16 17 18
473
FTUS43 KGRB 091130
TAFAUW
TAF
KAUW 091130Z 0912/1012 29007KT P6SM SCT040
      TEMPO 0912/0916 SCT030 BKN040
     FM100000 28006KT P6SM SCT025 BKN035
     FM100600 28005KT P6SM SCT028=

USA.gov is the U.S. government's official web portal to all federal, state and local government web resources and services.